Time;durP1;ratioP1;P1;durP2;ratioP2;P2;SDS_P1;SDS_P2;PMS_P1;PMS_P2;Temp;Humidity;BMP_temperature;BMP_pressure;BME280_temperature;BME280_humidity;BME280_pressure;Samples;Min_cycle;Max_cycle;Signal;HPM_P1;HPM_P2
2022/03/29 00:01:32;;;;;;;28.32;17.75;;;;;;;6.14;72.26;100537.38;1728103;82;21680;-90
2022/03/29 00:03:58;;;;;;;28.02;17.32;;;;;;;6.22;72.16;100531.14;1712001;82;21893;-90
2022/03/29 00:06:25;;;;;;;31.68;18.85;;;;;;;6.22;72.06;100520.26;1735265;81;21116;-88
2022/03/29 00:08:52;;;;;;;25.75;17.73;;;;;;;6.28;72.06;100515.69;1710385;82;20998;-88
2022/03/29 00:11:18;;;;;;;24.80;17.70;;;;;;;6.32;72.00;100512.34;1719095;82;21078;-88
2022/03/29 00:13:47;;;;;;;27.58;17.92;;;;;;;6.34;71.95;100507.19;1737810;81;21734;-89
2022/03/29 00:16:14;;;;;;;29.18;19.30;;;;;;;6.36;71.91;100505.13;1718777;82;21075;-88
2022/03/29 00:18:41;;;;;;;24.95;18.12;;;;;;;6.38;71.86;100497.31;1728070;82;20982;-89
2022/03/29 00:21:07;;;;;;;45.28;17.92;;;;;;;6.39;71.88;100496.07;1731528;81;21202;-89
2022/03/29 00:23:35;;;;;;;28.85;18.45;;;;;;;6.43;71.91;100494.47;1746363;82;21268;-89
2022/03/29 00:26:02;;;;;;;36.45;18.52;;;;;;;6.44;71.80;100487.11;1733811;80;21853;-89
2022/03/29 00:28:29;;;;;;;33.75;18.20;;;;;;;6.41;71.76;100489.17;1719227;82;21050;-87
2022/03/29 00:30:56;;;;;;;33.40;18.62;;;;;;;6.40;71.79;100488.72;1732023;82;21033;-88
2022/03/29 00:33:22;;;;;;;36.55;18.77;;;;;;;6.40;71.73;100486.49;1748978;80;20986;-87
2022/03/29 00:35:49;;;;;;;54.50;19.45;;;;;;;6.38;71.84;100482.94;1749208;81;21029;-87
2022/03/29 00:38:16;;;;;;;49.53;19.73;;;;;;;6.41;71.95;100477.41;1749156;82;21766;-86
2022/03/29 00:40:42;;;;;;;31.17;18.70;;;;;;;6.51;72.09;100482.55;1748766;81;20986;-87
2022/03/29 00:43:10;;;;;;;34.10;20.08;;;;;;;6.64;72.10;100483.02;1748566;81;21041;-87
2022/03/29 00:45:37;;;;;;;31.20;18.90;;;;;;;6.73;72.01;100478.13;1748871;81;21235;-87
2022/03/29 00:48:07;;;;;;;33.08;18.10;;;;;;;6.85;71.93;100475.05;1734585;82;21052;-88
2022/03/29 00:50:36;;;;;;;31.73;18.85;;;;;;;6.94;71.85;100468.41;1679899;84;22980;-87
2022/03/29 00:53:03;;;;;;;34.63;19.98;;;;;;;7.05;71.70;100470.52;1732272;82;21053;-88
2022/03/29 00:55:30;;;;;;;30.57;17.57;;;;;;;7.14;71.57;100473.03;1723745;82;21068;-88
2022/03/29 00:57:57;;;;;;;33.20;19.32;;;;;;;7.18;71.39;100469.68;1749189;81;21041;-89
2022/03/29 01:00:24;;;;;;;31.23;19.12;;;;;;;7.24;71.27;100470.73;1735892;82;21073;-89
2022/03/29 01:02:51;;;;;;;33.78;19.05;;;;;;;7.27;71.11;100466.92;1715118;83;21821;-89
2022/03/29 01:05:18;;;;;;;36.48;20.40;;;;;;;7.29;71.04;100471.36;1711894;82;21002;-89
2022/03/29 01:07:44;;;;;;;33.38;18.23;;;;;;;7.33;70.95;100469.73;1749152;82;21619;-89
2022/03/29 01:10:11;;;;;;;34.78;19.77;;;;;;;7.34;70.88;100469.80;1717736;81;21072;-88
2022/03/29 01:12:38;;;;;;;31.42;19.05;;;;;;;7.38;70.81;100467.74;1712336;82;21025;-87
2022/03/29 01:15:08;;;;;;;30.20;18.67;;;;;;;7.42;70.75;100463.50;1713725;81;21784;-86
2022/03/29 01:17:40;;;;;;;42.58;18.92;;;;;;;7.42;70.66;100462.19;1672061;84;21047;-87
2022/03/29 01:20:20;;;;;;;41.05;20.75;;;;;;;7.44;70.56;100466.17;1646572;85;21047;-86
2022/03/29 01:22:50;;;;;;;31.65;18.70;;;;;;;7.43;70.48;100457.41;1679172;84;21066;-86
2022/03/29 01:25:20;;;;;;;31.77;18.80;;;;;;;7.40;70.39;100458.20;1689285;84;21129;-86
2022/03/29 01:27:47;;;;;;;33.98;19.00;;;;;;;7.38;70.35;100452.46;1683538;84;21787;-86
2022/03/29 01:30:14;;;;;;;42.27;19.75;;;;;;;7.34;70.25;100455.82;1643783;86;21058;-86
2022/03/29 01:32:47;;;;;;;35.03;18.52;;;;;;;7.28;70.20;100464.75;1689418;84;21055;-86
2022/03/29 01:35:14;;;;;;;36.90;18.70;;;;;;;7.12;70.13;100443.30;1740142;82;21049;-87
2022/03/29 01:37:40;;;;;;;29.57;17.90;;;;;;;7.08;70.07;100455.82;1724042;82;21026;-88
2022/03/29 01:40:15;;;;;;;34.10;18.87;;;;;;;6.94;70.08;100454.02;1720035;82;21796;-88
2022/03/29 01:42:54;;;;;;;33.08;19.65;;;;;;;6.79;70.13;100452.17;1729673;82;21120;-86
2022/03/29 01:45:24;;;;;;;32.73;17.80;;;;;;;6.65;70.29;100449.51;1733736;82;20998;-88
2022/03/29 01:47:51;;;;;;;30.85;18.92;;;;;;;6.52;70.42;100450.78;1729208;82;21686;-88
2022/03/29 01:50:17;;;;;;;31.80;17.60;;;;;;;6.42;70.48;100448.25;1732222;82;21001;-88
2022/03/29 01:52:45;;;;;;;30.88;17.05;;;;;;;6.37;70.56;100447.19;1720563;82;21768;-89
2022/03/29 01:55:15;;;;;;;33.10;15.43;;;;;;;6.28;70.50;100441.61;1740915;82;20986;-88
2022/03/29 01:57:41;;;;;;;30.80;15.13;;;;;;;6.20;70.55;100435.68;1719099;82;21101;-88
2022/03/29 02:02:56;;;;;;;36.68;16.40;;;;;;;6.06;70.50;100429.03;1719604;82;21574;-88
2022/03/29 02:05:22;;;;;;;24.23;14.78;;;;;;;5.98;70.52;100428.74;1740274;82;21785;-87
2022/03/29 02:07:50;;;;;;;30.27;15.85;;;;;;;5.92;70.63;100436.75;1739603;82;21571;-89
2022/03/29 02:10:21;;;;;;;32.00;16.97;;;;;;;5.87;70.71;100433.05;1740476;82;21034;-92
2022/03/29 02:12:49;;;;;;;39.05;17.92;;;;;;;5.82;70.91;100430.28;1721336;82;21013;-89
2022/03/29 02:15:15;;;;;;;30.15;16.10;;;;;;;5.82;71.06;100428.55;1732109;81;21099;-90
2022/03/29 02:17:45;;;;;;;33.33;16.05;;;;;;;5.85;71.19;100438.21;1728251;82;21786;-90
2022/03/29 02:20:13;;;;;;;28.27;16.25;;;;;;;5.91;71.31;100438.86;1714002;82;21076;-88
2022/03/29 02:22:41;;;;;;;40.88;17.27;;;;;;;5.99;71.33;100434.88;1727510;82;20994;-88
2022/03/29 02:25:10;;;;;;;30.82;15.43;;;;;;;6.11;71.43;100440.98;1720263;81;21077;-88
2022/03/29 02:27:41;;;;;;;41.33;16.95;;;;;;;6.22;71.36;100436.63;1741228;81;22355;-87
2022/03/29 02:30:09;;;;;;;29.07;14.87;;;;;;;6.32;71.22;100442.20;1720336;82;22742;-85
2022/03/29 02:32:36;;;;;;;30.72;15.60;;;;;;;6.41;71.06;100430.77;1741365;82;21002;-86
2022/03/29 02:35:03;;;;;;;30.05;15.13;;;;;;;6.49;70.93;100437.59;1741091;81;21092;-87
2022/03/29 02:37:32;;;;;;;36.42;16.75;;;;;;;6.56;70.80;100440.91;1741446;82;21018;-92
2022/03/29 02:39:58;;;;;;;35.15;16.10;;;;;;;6.61;70.66;100449.39;1741340;81;21946;-88
2022/03/29 02:42:25;;;;;;;33.38;15.08;;;;;;;6.69;70.60;100452.27;1741612;81;22553;-88
2022/03/29 02:44:51;;;;;;;30.52;13.80;;;;;;;6.74;70.46;100445.48;1724626;81;20986;-85
2022/03/29 02:47:19;;;;;;;35.98;15.63;;;;;;;6.78;70.32;100449.11;1711734;82;21013;-87
2022/03/29 02:49:46;;;;;;;35.98;16.45;;;;;;;6.77;70.20;100447.31;1726290;82;21053;-87
2022/03/29 02:52:13;;;;;;;29.25;14.50;;;;;;;6.78;70.14;100451.30;1738722;82;21147;-87
2022/03/29 02:54:41;;;;;;;33.90;16.73;;;;;;;6.81;70.09;100455.34;1722899;82;21775;-88
2022/03/29 02:57:09;;;;;;;34.58;15.78;;;;;;;6.84;70.02;100454.97;1741643;81;21722;-90
2022/03/29 02:59:36;;;;;;;31.35;15.48;;;;;;;6.83;69.94;100448.83;1738633;81;21236;-88
2022/03/29 03:02:04;;;;;;;31.27;15.23;;;;;;;6.84;69.88;100451.05;1731238;82;21041;-91
2022/03/29 03:04:30;;;;;;;28.87;15.20;;;;;;;6.82;69.85;100448.38;1719863;81;21053;-88
2022/03/29 03:06:57;;;;;;;34.03;16.35;;;;;;;6.82;69.79;100441.83;1735839;82;21168;-88
2022/03/29 03:09:23;;;;;;;31.05;15.05;;;;;;;6.82;69.77;100454.91;1741600;82;21011;-87
2022/03/29 03:11:50;;;;;;;24.98;14.25;;;;;;;6.79;69.73;100445.24;1717136;82;21030;-87
2022/03/29 03:14:17;;;;;;;28.80;15.48;;;;;;;6.78;69.69;100447.80;1719287;82;21090;-87
2022/03/29 03:16:44;;;;;;;26.50;14.38;;;;;;;6.68;69.51;100435.21;1694808;83;21120;-87
2022/03/29 03:19:12;;;;;;;34.33;15.50;;;;;;;6.49;69.48;100434.55;1734192;82;21719;-88
2022/03/29 03:21:39;;;;;;;33.42;16.23;;;;;;;6.38;69.56;100443.72;1724863;81;21356;-88
2022/03/29 03:24:06;;;;;;;40.52;17.20;;;;;;;6.23;69.64;100430.58;1731875;82;21021;-88
2022/03/29 03:26:33;;;;;;;40.80;17.27;;;;;;;6.12;69.80;100439.73;1728118;82;20997;-87
2022/03/29 03:29:00;;;;;;;38.48;16.67;;;;;;;6.00;69.91;100432.73;1749140;82;21041;-90
2022/03/29 03:31:26;;;;;;;32.33;16.65;;;;;;;5.91;70.09;100434.95;1748771;81;21758;-87
2022/03/29 03:33:53;;;;;;;34.15;18.10;;;;;;;5.83;70.24;100437.27;1741545;81;22564;-88
2022/03/29 03:36:20;;;;;;;38.28;17.32;;;;;;;5.77;70.39;100431.81;1719385;82;21019;-87
2022/03/29 03:38:47;;;;;;;32.53;16.65;;;;;;;5.71;70.50;100438.98;1745281;82;21210;-88
2022/03/29 03:41:14;;;;;;;30.23;16.10;;;;;;;5.67;70.65;100437.48;1749133;81;21247;-88
2022/03/29 03:43:40;;;;;;;32.65;16.25;;;;;;;5.63;70.68;100443.91;1748998;82;22402;-87
2022/03/29 03:46:07;;;;;;;33.58;16.77;;;;;;;5.59;70.70;100438.48;1748522;81;21531;-87
2022/03/29 03:48:34;;;;;;;32.25;15.70;;;;;;;5.56;70.79;100445.80;1749362;82;21025;-88
2022/03/29 03:51:01;;;;;;;29.30;15.70;;;;;;;5.50;70.85;100439.42;1729158;82;21054;-88
2022/03/29 03:53:29;;;;;;;34.67;14.98;;;;;;;5.50;70.91;100448.56;1749354;80;21527;-89
2022/03/29 03:55:55;;;;;;;36.85;16.00;;;;;;;5.48;70.93;100452.83;1741596;81;21789;-83
2022/03/29 03:58:22;;;;;;;33.53;15.48;;;;;;;5.45;70.91;100453.19;1735468;82;21588;-83
2022/03/29 04:00:50;;;;;;;34.65;15.00;;;;;;;5.42;70.86;100453.47;1745875;81;21070;-84
2022/03/29 04:03:17;;;;;;;34.75;16.20;;;;;;;5.40;70.85;100461.66;1748152;80;22231;-83
2022/03/29 04:05:44;;;;;;;31.73;15.20;;;;;;;5.38;70.88;100464.62;1732563;81;21053;-83
2022/03/29 04:08:11;;;;;;;30.57;15.38;;;;;;;5.35;70.86;100461.88;1748346;82;21852;-83
2022/03/29 04:10:37;;;;;;;40.28;15.70;;;;;;;5.32;70.88;100464.37;1748386;81;21021;-83
2022/03/29 04:13:04;;;;;;;34.70;15.78;;;;;;;5.30;70.87;100465.61;1731660;81;21037;-84
2022/03/29 04:15:31;;;;;;;31.68;14.73;;;;;;;5.30;70.90;100469.95;1731713;81;20994;-84
2022/03/29 04:18:00;;;;;;;32.10;14.93;;;;;;;5.31;70.88;100470.41;1731809;81;21042;-84
2022/03/29 04:20:26;;;;;;;32.53;15.32;;;;;;;5.29;70.79;100468.15;1722727;82;21791;-84
2022/03/29 04:22:55;;;;;;;28.77;15.08;;;;;;;5.26;70.71;100468.50;1720225;81;21003;-82
2022/03/29 04:25:22;;;;;;;39.58;14.95;;;;;;;5.24;70.61;100462.76;1731866;82;20975;-82
2022/03/29 04:27:49;;;;;;;32.42;14.98;;;;;;;5.20;70.57;100460.43;1731787;82;21045;-83
2022/03/29 04:30:15;;;;;;;31.33;14.80;;;;;;;5.15;70.54;100462.37;1711564;82;21074;-83
2022/03/29 04:32:42;;;;;;;41.35;15.58;;;;;;;5.12;70.54;100466.14;1731038;82;21951;-83
2022/03/29 04:35:09;;;;;;;34.85;15.88;;;;;;;5.08;70.60;100462.51;1731460;81;21073;-81
2022/03/29 04:37:36;;;;;;;36.40;15.90;;;;;;;5.06;70.66;100466.34;1731149;82;21026;-85
2022/03/29 04:40:08;;;;;;;31.07;14.25;;;;;;;5.08;70.81;100465.54;1710940;82;21533;-83
2022/03/29 04:42:36;;;;;;;30.88;15.18;;;;;;;5.05;70.67;100467.20;1711039;82;21094;-89
2022/03/29 04:45:01;;;;;;;37.70;15.32;;;;;;;5.04;70.67;100466.70;1723540;82;21197;-82
2022/03/29 04:47:27;;;;;;;35.50;15.60;;;;;;;5.02;70.65;100462.26;1730981;81;21042;-82
2022/03/29 04:49:54;;;;;;;32.90;15.05;;;;;;;5.00;70.68;100465.22;1731991;82;21014;-82
2022/03/29 04:52:22;;;;;;;31.87;15.18;;;;;;;5.00;70.79;100476.53;1711174;82;21053;-84
2022/03/29 04:54:49;;;;;;;31.30;15.95;;;;;;;5.07;70.81;100472.48;1718269;82;21040;-83
2022/03/29 04:57:15;;;;;;;33.80;15.05;;;;;;;5.21;70.88;100476.55;1702679;82;21726;-83
2022/03/29 04:59:42;;;;;;;33.63;15.50;;;;;;;5.25;70.66;100478.88;1712894;82;20983;-83
2022/03/29 05:02:15;;;;;;;34.90;16.10;;;;;;;5.28;70.64;100483.34;1712110;82;21173;-82
2022/03/29 05:04:42;;;;;;;32.77;16.83;;;;;;;5.30;70.55;100480.39;1711593;82;21503;-82
2022/03/29 05:07:10;;;;;;;31.80;15.40;;;;;;;5.31;70.53;100483.45;1703146;82;21765;-82
2022/03/29 05:09:37;;;;;;;32.78;16.25;;;;;;;5.35;70.52;100486.28;1731693;82;22728;-83
2022/03/29 05:12:04;;;;;;;29.07;15.65;;;;;;;5.47;70.58;100485.89;1723154;82;21076;-82
2022/03/29 05:14:31;;;;;;;39.80;15.95;;;;;;;5.64;70.56;100483.54;1710547;82;21061;-84
2022/03/29 05:16:57;;;;;;;28.40;14.38;;;;;;;5.86;70.46;100480.50;1740274;82;21550;-83
2022/03/29 05:19:24;;;;;;;34.48;16.17;;;;;;;6.09;70.20;100481.84;1723360;82;21080;-82
2022/03/29 05:21:51;;;;;;;28.67;15.23;;;;;;;6.28;69.95;100485.63;1737436;82;22581;-82
2022/03/29 05:24:17;;;;;;;31.68;14.13;;;;;;;6.51;69.73;100478.63;1740316;82;21037;-82
2022/03/29 05:26:44;;;;;;;28.87;14.43;;;;;;;6.72;69.53;100493.33;1724824;82;21546;-82
2022/03/29 05:29:18;;;;;;;31.45;14.15;;;;;;;6.89;69.07;100481.77;1718304;82;21116;-82
2022/03/29 05:31:39;;;;;;;37.50;15.65;;;;;;;6.99;68.82;100485.59;1718025;82;21034;-82
2022/03/29 05:34:06;;;;;;;29.15;15.08;;;;;;;7.13;68.70;100488.29;1732287;82;22590;-82
2022/03/29 05:36:33;;;;;;;28.27;14.53;;;;;;;7.23;68.42;100482.06;1712487;82;21082;-82
2022/03/29 05:38:59;;;;;;;33.10;15.05;;;;;;;7.28;68.20;100488.32;1731040;82;21025;-82
2022/03/29 05:41:26;;;;;;;31.37;14.03;;;;;;;7.31;67.80;100490.63;1740728;82;21531;-82
2022/03/29 05:43:52;;;;;;;26.52;14.30;;;;;;;7.25;67.62;100494.78;1740391;81;21056;-82
2022/03/29 05:49:04;;;;;;;28.25;12.70;;;;;;;7.15;67.40;100487.92;1734439;81;21080;-81
2022/03/29 05:51:31;;;;;;;33.30;14.30;;;;;;;7.11;67.41;100495.16;1712757;82;21049;-82
2022/03/29 05:54:01;;;;;;;31.87;13.03;;;;;;;7.13;67.46;100501.37;1740929;82;21551;-81
2022/03/29 05:56:28;;;;;;;33.78;14.25;;;;;;;7.16;67.30;100497.53;1741018;81;21542;-82
2022/03/29 05:58:54;;;;;;;27.27;13.10;;;;;;;7.16;67.20;100496.66;1741211;81;21755;-82
2022/03/29 06:01:21;;;;;;;23.10;11.88;;;;;;;7.18;67.18;100507.64;1729933;81;21025;-82
2022/03/29 06:03:48;;;;;;;36.77;12.73;;;;;;;7.16;66.87;100508.00;1738360;81;21053;-83
2022/03/29 06:06:14;;;;;;;23.67;13.70;;;;;;;7.15;66.84;100507.94;1703036;82;21044;-82
2022/03/29 06:08:42;;;;;;;27.48;13.08;;;;;;;7.14;66.68;100514.03;1740452;82;20998;-82
2022/03/29 06:11:08;;;;;;;28.98;13.05;;;;;;;7.12;66.61;100505.24;1739786;81;21776;-82
2022/03/29 06:13:35;;;;;;;24.15;12.33;;;;;;;7.13;66.67;100513.55;1717577;82;21083;-82
2022/03/29 06:16:05;;;;;;;28.23;12.47;;;;;;;7.13;66.54;100507.00;1736434;82;21053;-82
2022/03/29 06:18:33;;;;;;;25.08;11.20;;;;;;;7.13;66.42;100509.62;1747860;81;21543;-82
2022/03/29 06:20:59;;;;;;;23.45;11.53;;;;;;;7.15;66.45;100511.87;1732167;81;21080;-82
2022/03/29 06:23:26;;;;;;;26.60;14.18;;;;;;;7.21;66.27;100513.42;1718654;82;21819;-82
2022/03/29 06:25:55;;;;;;;25.45;12.90;;;;;;;7.27;66.29;100514.05;1732170;82;21096;-82
2022/03/29 06:28:22;;;;;;;24.72;11.80;;;;;;;7.31;66.17;100510.69;1746216;80;21054;-82
2022/03/29 06:30:48;;;;;;;25.30;10.30;;;;;;;7.39;66.03;100523.61;1718606;82;21047;-83
2022/03/29 06:33:16;;;;;;;21.95;9.73;;;;;;;7.44;65.52;100516.81;1739370;82;21041;-82
2022/03/29 06:35:42;;;;;;;19.87;9.35;;;;;;;7.48;65.04;100523.92;1717116;82;21797;-82
2022/03/29 06:38:09;;;;;;;18.95;9.93;;;;;;;7.45;64.82;100521.63;1736684;82;21076;-82
2022/03/29 06:40:36;;;;;;;24.95;9.80;;;;;;;7.45;64.65;100521.63;1746699;81;21045;-83
2022/03/29 06:43:43;;;;;;;22.77;9.48;;;;;;;7.51;64.33;100520.55;1746063;80;21057;-84
2022/03/29 06:46:10;;;;;;;20.23;9.23;;;;;;;7.61;64.10;100528.28;1611545;86;21673;-82
2022/03/29 06:48:52;;;;;;;22.05;8.78;;;;;;;7.59;63.18;100527.80;1614339;88;21765;-83
2022/03/29 06:51:18;;;;;;;20.05;8.45;;;;;;;7.58;62.97;100532.58;1618537;88;21105;-82
2022/03/29 06:53:45;;;;;;;20.35;8.03;;;;;;;7.55;62.91;100528.97;1622446;87;21094;-81
2022/03/29 06:56:16;;;;;;;19.55;8.80;;;;;;;7.62;62.48;100531.35;1613969;87;21091;-81
2022/03/29 06:58:45;;;;;;;20.57;8.63;;;;;;;7.66;62.38;100535.85;1596975;88;21645;-82
2022/03/29 07:01:11;;;;;;;15.43;7.00;;;;;;;7.73;62.37;100539.15;1614289;87;21868;-82
2022/03/29 07:03:40;;;;;;;17.90;8.48;;;;;;;7.77;61.32;100538.01;1607408;88;21095;-82
2022/03/29 07:06:08;;;;;;;20.43;7.62;;;;;;;7.84;61.45;100540.39;1597154;88;21138;-82
2022/03/29 07:08:35;;;;;;;16.17;6.60;;;;;;;7.95;61.09;100545.56;1607746;87;21087;-82
2022/03/29 07:11:17;;;;;;;14.45;6.60;;;;;;;7.96;60.07;100544.73;1597057;88;21130;-82
2022/03/29 07:13:47;;;;;;;16.70;7.20;;;;;;;8.06;60.00;100545.03;1605825;88;21635;-82
2022/03/29 07:16:14;;;;;;;12.65;6.15;;;;;;;8.22;59.87;100544.68;1605039;88;21122;-82
2022/03/29 07:18:41;;;;;;;14.60;5.62;;;;;;;8.42;59.19;100554.48;1615166;88;21071;-82
2022/03/29 07:21:10;;;;;;;15.40;6.08;;;;;;;8.60;58.95;100546.30;1597247;88;21124;-81
2022/03/29 07:23:37;;;;;;;16.00;5.65;;;;;;;8.87;58.24;100547.94;1674654;84;21110;-81
2022/03/29 07:26:04;;;;;;;19.12;6.30;;;;;;;9.08;57.76;100549.83;1703917;84;21761;-83
2022/03/29 07:28:31;;;;;;;21.27;6.22;;;;;;;9.19;57.07;100548.83;1705273;84;21110;-81
2022/03/29 07:30:58;;;;;;;15.43;5.37;;;;;;;9.18;56.49;100543.13;1705260;83;21623;-81
2022/03/29 07:33:24;;;;;;;16.70;5.28;;;;;;;9.15;55.94;100539.97;1705029;84;21070;-81
2022/03/29 07:35:51;;;;;;;16.07;5.58;;;;;;;9.20;55.71;100542.74;1694744;84;21577;-82
2022/03/29 07:38:18;;;;;;;15.08;5.10;;;;;;;9.19;54.98;100545.31;1676814;84;22601;-81
2022/03/29 07:40:46;;;;;;;14.28;5.47;;;;;;;9.01;55.10;100543.98;1664579;85;39194;-82
2022/03/29 07:43:13;;;;;;;17.30;6.78;;;;;;;9.05;54.87;100537.08;1692391;84;21102;-82
2022/03/29 07:45:40;;;;;;;12.28;5.78;;;;;;;9.04;54.76;100543.16;1704129;84;21089;-82
2022/03/29 07:48:07;;;;;;;14.90;5.85;;;;;;;9.05;54.53;100539.27;1705136;82;21069;-81
2022/03/29 07:50:34;;;;;;;13.93;6.70;;;;;;;9.10;54.30;100545.55;1701653;83;22573;-81
2022/03/29 07:53:03;;;;;;;15.13;5.85;;;;;;;9.21;54.31;100546.25;1676491;84;21074;-82
2022/03/29 07:55:29;;;;;;;12.45;4.72;;;;;;;9.31;53.88;100549.17;1677791;84;21091;-82
2022/03/29 07:57:56;;;;;;;10.72;4.95;;;;;;;9.46;53.76;100550.41;1704974;83;21176;-82
2022/03/29 08:00:32;;;;;;;9.85;4.70;;;;;;;9.50;53.18;100541.34;1705005;82;21095;-83
2022/03/29 08:03:09;;;;;;;14.55;4.37;;;;;;;9.59;52.79;100539.39;1685819;84;21776;-82
2022/03/29 08:05:39;;;;;;;14.25;4.25;;;;;;;9.72;52.55;100541.87;1686345;82;21751;-82
2022/03/29 08:08:06;;;;;;;10.38;3.87;;;;;;;9.84;52.44;100540.88;1704804;82;21173;-82
2022/03/29 08:10:33;;;;;;;14.60;4.50;;;;;;;9.92;52.11;100537.12;1692162;82;21155;-82
2022/03/29 08:13:02;;;;;;;9.65;4.70;;;;;;;10.02;51.65;100537.83;1701999;82;21129;-82
2022/03/29 08:15:30;;;;;;;9.18;3.50;;;;;;;10.14;51.34;100540.28;1699184;83;21886;-82
2022/03/29 08:17:57;;;;;;;7.47;3.17;;;;;;;10.26;50.82;100541.42;1718008;82;21085;-82
2022/03/29 08:20:24;;;;;;;8.83;3.08;;;;;;;10.35;50.73;100536.84;1689308;83;21161;-82
2022/03/29 08:22:50;;;;;;;14.53;3.37;;;;;;;10.48;50.16;100539.33;1706556;82;21081;-82
2022/03/29 08:25:21;;;;;;;13.60;4.25;;;;;;;10.44;49.51;100537.48;1691627;83;21046;-81
2022/03/29 08:27:48;;;;;;;19.12;4.60;;;;;;;10.34;49.23;100539.44;1704823;83;22281;-81
2022/03/29 08:30:15;;;;;;;10.38;4.08;;;;;;;10.29;49.21;100537.56;1713605;83;21027;-82
2022/03/29 08:32:43;;;;;;;10.13;2.87;;;;;;;10.34;48.91;100540.75;1701912;82;21129;-82
2022/03/29 08:35:12;;;;;;;8.75;3.47;;;;;;;10.48;48.78;100538.89;1695529;83;21161;-81
2022/03/29 08:37:39;;;;;;;5.28;2.60;;;;;;;10.64;48.25;100538.81;1689040;83;21116;-81
2022/03/29 08:40:27;;;;;;;;;;;;;;;;;;;;;
2022/03/29 08:42:43;;;;;;;8.83;3.98;;;;;;;11.01;47.46;100536.02;1711413;82;21054;-82
2022/03/29 08:45:15;;;;;;;8.80;4.33;;;;;;;11.03;47.01;100538.26;1717492;82;21583;-82
2022/03/29 08:47:43;;;;;;;13.32;4.85;;;;;;;10.96;47.12;100532.41;1698784;83;21113;-82
2022/03/29 08:50:11;;;;;;;10.40;3.60;;;;;;;11.07;47.22;100537.05;1701840;83;21117;-82
2022/03/29 08:52:39;;;;;;;12.03;3.83;;;;;;;11.12;46.41;100537.56;1717990;82;22645;-83
2022/03/29 08:55:08;;;;;;;13.35;3.30;;;;;;;11.03;46.29;100537.82;1718131;83;21579;-81
2022/03/29 08:57:34;;;;;;;9.50;4.33;;;;;;;11.03;45.81;100535.19;1712436;82;21145;-84
2022/03/29 09:00:01;;;;;;;12.98;4.58;;;;;;;10.97;45.75;100535.08;1703255;83;21247;-81
2022/03/29 09:02:35;;;;;;;9.30;3.52;;;;;;;10.89;45.48;100541.95;1718371;82;21098;-82
2022/03/29 09:05:15;;;;;;;;;;;;;;;10.93;45.67;100536.31;1721026;83;21803;-81
2022/03/29 09:07:59;;;;;;;6.97;2.92;;;;;;;10.99;45.33;100537.74;1718381;82;20211;-81
2022/03/29 09:10:51;;;;;;;10.18;3.33;;;;;;;11.05;45.32;100536.10;1689067;83;21613;-82
2022/03/29 09:13:27;;;;;;;10.32;3.92;;;;;;;11.00;45.37;100535.14;1717573;82;21074;-81
2022/03/29 09:15:58;;;;;;;13.32;3.55;;;;;;;10.91;44.92;100544.62;1710201;82;21082;-81
2022/03/29 09:18:25;;;;;;;7.62;3.20;;;;;;;10.62;45.11;100540.52;1735845;82;21821;-81
2022/03/29 09:21:16;;;;;;;11.57;4.30;;;;;;;10.44;45.14;100534.85;1739895;81;21049;-81
2022/03/29 09:23:46;;;;;;;10.10;4.65;;;;;;;10.42;45.17;100536.13;1692338;84;21091;-81
2022/03/29 09:26:27;;;;;;;9.10;3.05;;;;;;;10.18;45.25;100535.55;1669776;84;21059;-81
2022/03/29 09:29:27;;;;;;;15.18;5.53;;;;;;;10.13;45.53;100532.79;1674074;84;21132;-84
2022/03/29 09:32:10;;;;;;;13.83;3.37;;;;;;;9.95;45.36;100540.23;1679040;85;21748;-81
2022/03/29 09:34:37;;;;;;;10.15;3.42;;;;;;;9.70;45.63;100531.35;1689448;84;21089;-81
2022/03/29 09:37:05;;;;;;;15.38;3.15;;;;;;;9.66;45.76;100527.28;1653318;85;21039;-81
2022/03/29 09:39:44;;;;;;;8.68;3.02;;;;;;;9.63;45.86;100531.13;1699853;83;21106;-81
2022/03/29 09:42:18;;;;;;;10.78;3.58;;;;;;;9.53;45.97;100529.61;1679846;83;21038;-81
2022/03/29 09:44:48;;;;;;;12.30;4.05;;;;;;;9.58;46.09;100534.09;1685370;83;21793;-81
2022/03/29 09:47:20;;;;;;;13.65;2.98;;;;;;;9.69;46.00;100529.56;1671429;84;21143;-81
2022/03/29 09:50:02;;;;;;;13.20;3.67;;;;;;;9.78;45.95;100526.69;1638982;85;21044;-81
2022/03/29 09:52:31;;;;;;;13.35;3.83;;;;;;;9.94;46.12;100523.58;1671858;84;21121;-82
2022/03/29 09:55:16;;;;;;;11.50;3.37;;;;;;;10.11;45.79;100527.92;1625242;86;21159;-82
2022/03/29 09:58:01;;;;;;;12.53;3.50;;;;;;;10.33;45.72;100529.78;1675043;84;21782;-82
2022/03/29 10:00:38;;;;;;;11.70;3.90;;;;;;;10.52;45.59;100524.49;1630297;86;21099;-81
2022/03/29 10:03:10;;;;;;;10.70;3.80;;;;;;;10.57;45.18;100525.05;1696956;84;21078;-81
2022/03/29 10:05:39;;;;;;;11.38;4.08;;;;;;;10.61;45.08;100522.06;1676844;84;21222;-82
2022/03/29 10:10:58;;;;;;;12.85;3.90;;;;;;;10.74;44.87;100513.99;1696433;84;21770;-82
2022/03/29 10:13:24;;;;;;;8.70;3.50;;;;;;;10.83;44.86;100514.15;1696685;84;21161;-82
2022/03/29 10:15:51;;;;;;;10.55;3.45;;;;;;;10.83;44.90;100511.11;1681578;84;21049;-82
2022/03/29 10:18:18;;;;;;;7.95;3.10;;;;;;;10.98;44.91;100509.21;1668552;84;21148;-81
2022/03/29 10:20:45;;;;;;;12.23;3.87;;;;;;;11.11;44.49;100503.72;1680982;84;21116;-82
2022/03/29 10:23:19;;;;;;;8.33;3.42;;;;;;;11.14;44.20;100507.74;1676949;84;21764;-82
2022/03/29 10:25:42;;;;;;;8.98;4.72;;;;;;;11.24;44.31;100507.07;1693733;84;21496;-81
2022/03/29 10:28:09;;;;;;;9.83;3.37;;;;;;;11.38;43.94;100508.63;1677299;84;21692;-82
2022/03/29 10:30:41;;;;;;;10.40;2.90;;;;;;;11.45;43.74;100503.05;1677471;83;20985;-82
2022/03/29 10:33:26;;;;;;;14.63;3.30;;;;;;;11.52;43.57;100501.39;1718561;82;21078;-81
2022/03/29 10:36:11;;;;;;;5.85;2.50;;;;;;;11.59;43.56;100505.47;1718388;82;21306;-81
2022/03/29 10:38:52;;;;;;;6.28;2.30;;;;;;;11.59;43.36;100497.56;1738851;82;21037;-81
2022/03/29 10:41:45;;;;;;;7.42;2.62;;;;;;;11.69;43.04;100503.87;1733666;82;21048;-81
2022/03/29 10:44:14;;;;;;;7.85;2.95;;;;;;;11.74;43.02;100504.84;1727199;81;21487;-81
2022/03/29 10:46:54;;;;;;;8.98;2.75;;;;;;;11.52;42.66;100496.99;1747429;80;21017;-82
2022/03/29 10:49:32;;;;;;;8.13;2.92;;;;;;;11.48;42.81;100496.05;1714144;82;21861;-82
2022/03/29 10:52:09;;;;;;;9.98;3.37;;;;;;;11.40;42.68;100494.16;1717950;82;21123;-84
2022/03/29 10:54:46;;;;;;;5.25;2.05;;;;;;;11.48;42.70;100488.58;1718084;82;21615;-82
2022/03/29 10:57:20;;;;;;;11.08;2.58;;;;;;;11.39;42.68;100486.70;1699248;83;21062;-81
2022/03/29 10:59:58;;;;;;;7.33;2.30;;;;;;;11.40;42.83;100483.63;1742531;82;21622;-81
2022/03/29 11:02:25;;;;;;;6.97;2.30;;;;;;;11.48;42.58;100482.00;1738943;82;21941;-82
2022/03/29 11:05:12;;;;;;;6.12;2.20;;;;;;;11.33;42.40;100487.88;1729336;82;21041;-82
2022/03/29 11:08:02;;;;;;;5.75;2.60;;;;;;;11.22;42.52;100486.80;1748536;82;21656;-82
2022/03/29 11:10:43;;;;;;;6.17;2.08;;;;;;;11.24;42.80;100479.81;1730969;82;21033;-82
2022/03/29 11:13:32;;;;;;;6.37;2.52;;;;;;;11.37;42.72;100496.73;1727719;81;21587;-81
2022/03/29 11:16:02;;;;;;;8.35;2.40;;;;;;;11.19;42.49;100481.06;1731206;81;21791;-81
2022/03/29 11:18:37;;;;;;;11.18;3.60;;;;;;;11.13;42.36;100478.73;1724403;82;21097;-81
2022/03/29 11:21:04;;;;;;;13.22;5.60;;;;;;;11.06;42.49;100476.43;1748447;80;21558;-83
2022/03/29 11:23:42;;;;;;;9.05;2.70;;;;;;;11.18;42.58;100481.91;1727492;80;21147;-81
2022/03/29 11:26:12;;;;;;;8.23;2.60;;;;;;;11.21;42.31;100484.61;1723484;82;21096;-83
2022/03/29 11:28:54;;;;;;;10.03;2.55;;;;;;;11.18;42.17;100479.71;1748531;80;21773;-82
2022/03/29 11:31:21;;;;;;;5.10;2.25;;;;;;;10.95;41.25;100477.54;1730319;81;21090;-83
2022/03/29 11:33:52;;;;;;;6.30;2.33;;;;;;;10.82;41.24;100479.48;1739901;82;21091;-83
2022/03/29 11:36:22;;;;;;;7.08;1.77;;;;;;;10.63;41.00;100473.84;1735172;82;21669;-82
2022/03/29 11:38:49;;;;;;;6.90;1.87;;;;;;;10.54;40.82;100472.77;1722271;82;21610;-81
2022/03/29 11:41:25;;;;;;;4.67;1.72;;;;;;;10.45;40.60;100474.34;1719207;82;21427;-82